Time;durP1;ratioP1;P1;durP2;ratioP2;P2;SDS_P1;SDS_P2;PMS_P1;PMS_P2;Temp;Humidity;BMP_temperature;BMP_pressure;BME280_temperature;BME280_humidity;BME280_pressure;Samples;Min_cycle;Max_cycle;Signal;HPM_P1;HPM_P2
2022/11/05 00:10:46;;;;;;;9.60;2.15;;;7.10;99.90;;;;;;5035621;28;20053;-87
2022/11/05 00:18:42;;;;;;;8.43;2.03;;;6.90;99.90;;;;;;5018372;28;20057;-82
2022/11/05 00:25:12;;;;;;;9.15;1.70;;;6.90;99.90;;;;;;5032199;28;20063;-85
2022/11/05 00:26:38;;;;;;;8.60;1.90;;;6.80;99.90;;;;;;5038146;28;20045;-89
2022/11/05 00:29:04;;;;;;;7.57;1.73;;;6.70;99.90;;;;;;5032591;28;20352;-89
2022/11/05 00:31:31;;;;;;;11.40;2.20;;;6.70;99.90;;;;;;5015278;28;20056;-92
2022/11/05 00:33:57;;;;;;;8.82;2.03;;;6.70;99.90;;;;;;5036457;28;20149;-82
2022/11/05 00:36:23;;;;;;;12.18;2.83;;;6.70;99.90;;;;;;5032330;28;20053;-83
2022/11/05 00:38:49;;;;;;;9.70;2.20;;;6.80;99.90;;;;;;5033235;28;20049;-91
2022/11/05 00:41:15;;;;;;;10.52;2.38;;;6.80;99.90;;;;;;5034937;28;20057;-85
2022/11/05 00:46:25;;;;;;;7.93;2.27;;;6.90;99.90;;;;;;5035301;28;20109;-88
2022/11/05 00:51:35;;;;;;;8.65;2.03;;;6.90;99.90;;;;;;5022705;28;20172;-85
2022/11/05 00:54:02;;;;;;;11.43;2.30;;;7.00;99.90;;;;;;5017458;28;20560;-88
2022/11/05 00:56:28;;;;;;;11.43;2.92;;;7.00;99.90;;;;;;5016053;28;20045;-86
2022/11/05 00:58:55;;;;;;;12.73;2.20;;;7.00;99.90;;;;;;5032299;28;20053;-84
2022/11/05 01:01:21;;;;;;;12.32;2.78;;;7.10;99.90;;;;;;5031195;28;20053;-84
2022/11/05 01:03:46;;;;;;;8.75;2.60;;;7.10;99.90;;;;;;5014431;28;20075;-85
2022/11/05 01:06:15;;;;;;;8.68;2.25;;;7.10;99.90;;;;;;5018452;28;20053;-90
2022/11/05 01:08:43;;;;;;;9.65;2.45;;;7.10;99.90;;;;;;5015563;28;20045;-88
2022/11/05 01:11:11;;;;;;;15.63;2.63;;;7.10;99.90;;;;;;5019721;28;20421;-84
2022/11/05 01:13:39;;;;;;;11.30;2.55;;;7.10;99.90;;;;;;5016941;28;20115;-82
2022/11/05 01:16:08;;;;;;;12.13;2.65;;;7.00;99.90;;;;;;5033737;28;20054;-86
2022/11/05 01:18:37;;;;;;;12.02;2.08;;;7.00;99.90;;;;;;5032594;28;20111;-88
2022/11/05 01:21:11;;;;;;;8.18;2.40;;;7.00;99.90;;;;;;5022443;28;20061;-86
2022/11/05 01:23:37;;;;;;;8.80;2.50;;;7.00;99.90;;;;;;5036059;28;20057;-90
2022/11/05 01:26:03;;;;;;;10.20;2.08;;;6.90;99.90;;;;;;5022383;28;20076;-91
2022/11/05 01:28:29;;;;;;;10.68;2.28;;;6.90;99.90;;;;;;5041023;28;20080;-85
2022/11/05 01:30:56;;;;;;;9.02;2.20;;;6.90;99.90;;;;;;5037350;28;20101;-84
2022/11/05 01:33:22;;;;;;;10.38;2.35;;;6.90;99.90;;;;;;5037355;28;20058;-88
2022/11/05 01:35:50;;;;;;;10.05;2.45;;;6.90;99.90;;;;;;5019857;28;20050;-85
2022/11/05 01:38:17;;;;;;;10.82;2.25;;;6.90;99.90;;;;;;5025371;28;20057;-83
2022/11/05 01:40:44;;;;;;;11.15;2.03;;;6.80;99.90;;;;;;5026463;28;20084;-84
2022/11/05 01:43:21;;;;;;;6.80;2.10;;;6.80;99.90;;;;;;5042813;28;20041;-87
2022/11/05 01:45:53;;;;;;;7.55;1.85;;;6.90;99.90;;;;;;5042324;28;20053;-88
2022/11/05 01:48:24;;;;;;;9.68;3.30;;;6.80;99.90;;;;;;5017220;28;20055;-84
2022/11/05 01:50:58;;;;;;;7.03;2.13;;;6.80;99.90;;;;;;5035568;28;20050;-90
2022/11/05 01:53:44;;;;;;;9.43;2.40;;;6.80;99.90;;;;;;5037812;28;20444;-83
2022/11/05 01:56:27;;;;;;;18.10;2.60;;;6.80;99.90;;;;;;5035845;28;20085;-87
2022/11/05 01:59:16;;;;;;;9.70;2.20;;;6.80;99.90;;;;;;5038520;28;20054;-84
2022/11/05 02:01:43;;;;;;;7.13;2.63;;;6.80;99.90;;;;;;5041379;28;20053;-84
2022/11/05 02:04:16;;;;;;;10.27;2.30;;;6.90;99.90;;;;;;5016879;28;20057;-88
2022/11/05 02:06:45;;;;;;;11.32;3.28;;;6.90;99.90;;;;;;5035730;28;20057;-88
2022/11/05 02:09:13;;;;;;;13.35;2.28;;;6.90;99.90;;;;;;5040237;28;20371;-83
2022/11/05 02:11:39;;;;;;;9.80;2.53;;;6.90;99.90;;;;;;5035749;28;20045;-83
2022/11/05 02:14:05;;;;;;;12.10;2.30;;;6.90;99.90;;;;;;5039772;28;20105;-82
2022/11/05 02:16:40;;;;;;;8.30;2.33;;;7.00;99.90;;;;;;5041162;28;20498;-91
2022/11/05 02:19:37;;;;;;;13.82;2.42;;;6.90;99.90;;;;;;5043910;28;20083;-91
2022/11/05 02:22:37;;;;;;;8.63;2.47;;;6.90;99.90;;;;;;5045034;28;20084;-90
2022/11/05 02:25:09;;;;;;;12.38;2.20;;;6.90;99.90;;;;;;5045639;28;20073;-83
2022/11/05 02:27:55;;;;;;;8.98;2.20;;;6.90;99.90;;;;;;5043906;28;20497;-87
2022/11/05 02:30:40;;;;;;;8.18;1.95;;;6.90;99.90;;;;;;5043306;28;20061;-92
2022/11/05 02:33:09;;;;;;;;;;;7.00;99.90;;;;;;5039830;28;20057;-92
2022/11/05 02:35:53;;;;;;;12.98;2.22;;;7.00;99.90;;;;;;5021737;28;19996;-91
2022/11/05 02:38:46;;;;;;;7.72;2.20;;;7.00;99.90;;;;;;5021278;28;20097;-85
2022/11/05 02:41:31;;;;;;;8.13;2.03;;;7.10;99.90;;;;;;4995569;28;20045;-83
2022/11/05 02:44:34;;;;;;;7.78;1.70;;;7.10;99.90;;;;;;5039350;28;20116;-88
2022/11/05 02:47:25;;;;;;;8.43;1.95;;;7.10;99.90;;;;;;5017529;28;20490;-89
2022/11/05 02:50:06;;;;;;;10.68;2.20;;;7.10;99.90;;;;;;5017037;28;20135;-91
2022/11/05 02:52:49;;;;;;;4.15;1.95;;;7.10;99.90;;;;;;5019687;28;20042;-83
2022/11/05 02:55:34;;;;;;;5.40;2.60;;;7.10;99.90;;;;;;5023653;28;20116;-91
2022/11/05 02:58:04;;;;;;;7.35;1.58;;;7.10;99.90;;;;;;5021827;28;20065;-93
2022/11/05 03:00:43;;;;;;;6.90;1.77;;;7.20;99.90;;;;;;5036528;28;20072;-85
2022/11/05 03:03:16;;;;;;;8.55;1.67;;;7.20;99.90;;;;;;5018411;28;20417;-86
2022/11/05 03:06:10;;;;;;;6.72;1.92;;;7.30;99.90;;;;;;5041407;28;20058;-85
2022/11/05 03:08:52;;;;;;;5.10;1.65;;;7.30;99.90;;;;;;5020861;28;20120;-91
2022/11/05 03:11:22;;;;;;;5.32;1.70;;;7.20;99.90;;;;;;5036639;28;20108;-84
2022/11/05 03:14:10;;;;;;;11.57;2.20;;;7.20;99.90;;;;;;5038857;28;20091;-85
2022/11/05 03:16:42;;;;;;;11.60;1.90;;;7.20;99.90;;;;;;5039958;28;20051;-93
2022/11/05 03:19:27;;;;;;;11.75;2.65;;;7.20;99.90;;;;;;5002288;28;20061;-90
2022/11/05 03:22:15;;;;;;;6.75;1.95;;;7.10;99.90;;;;;;5018335;28;20052;-89
2022/11/05 03:24:46;;;;;;;8.50;1.80;;;7.10;99.90;;;;;;5034123;28;20041;-92
2022/11/05 03:27:18;;;;;;;9.65;2.28;;;7.10;99.90;;;;;;5034258;28;20132;-92
2022/11/05 03:29:57;;;;;;;17.40;2.58;;;7.10;99.90;;;;;;5019797;28;20053;-90
2022/11/05 03:32:26;;;;;;;5.68;1.48;;;7.10;99.90;;;;;;5035882;28;20052;-91
2022/11/05 03:35:11;;;;;;;8.40;2.33;;;7.10;99.90;;;;;;5040937;28;20092;-86
2022/11/05 03:37:40;;;;;;;8.38;1.90;;;7.10;99.90;;;;;;5017932;28;20049;-91
2022/11/05 03:40:09;;;;;;;9.85;1.88;;;7.10;99.90;;;;;;5022125;28;20072;-90
2022/11/05 03:42:39;;;;;;;9.93;1.98;;;7.00;99.90;;;;;;5034426;28;20096;-85
2022/11/05 03:45:14;;;;;;;10.77;3.53;;;7.10;99.90;;;;;;5040618;28;20084;-83
2022/11/05 03:47:43;;;;;;;11.65;2.25;;;7.10;99.90;;;;;;5039494;28;20053;-83
2022/11/05 03:50:17;;;;;;;7.05;1.90;;;7.10;99.90;;;;;;5029845;28;20045;-86
2022/11/05 03:52:48;;;;;;;6.50;2.35;;;7.20;99.90;;;;;;5040441;28;20489;-84
2022/11/05 03:55:14;;;;;;;5.85;1.50;;;7.20;99.90;;;;;;5040075;28;20060;-87
2022/11/05 03:57:45;;;;;;;5.65;1.83;;;7.30;99.90;;;;;;5034913;28;20049;-88
2022/11/05 04:00:12;;;;;;;8.27;1.98;;;7.40;99.90;;;;;;5033674;28;20068;-84
2022/11/05 04:02:38;;;;;;;9.23;1.95;;;7.50;99.90;;;;;;5036556;28;20374;-83
2022/11/05 04:05:04;;;;;;;12.80;2.13;;;7.60;99.90;;;;;;5015045;28;20081;-84
2022/11/05 04:18:29;;;;;;;5.80;1.67;;;7.80;99.90;;;;;;5018797;28;20046;-84
2022/11/05 04:26:24;;;;;;;5.80;1.52;;;7.90;99.90;;;;;;5000694;28;20129;-86
2022/11/05 04:31:35;;;;;;;7.22;1.60;;;8.00;99.90;;;;;;5040517;28;20049;-84
2022/11/05 04:34:01;;;;;;;16.10;2.22;;;8.00;99.90;;;;;;5017985;28;20045;-87
2022/11/05 04:36:27;;;;;;;7.60;1.52;;;8.00;99.90;;;;;;5018096;28;20084;-88
2022/11/05 04:38:53;;;;;;;5.57;1.25;;;8.00;99.90;;;;;;5034370;28;20069;-88
2022/11/05 04:41:19;;;;;;;5.65;1.45;;;8.00;99.90;;;;;;5036255;28;20111;-81
2022/11/05 04:43:44;;;;;;;3.85;1.40;;;8.10;99.90;;;;;;5035243;28;20045;-84
2022/11/05 04:46:10;;;;;;;6.05;1.15;;;8.10;99.90;;;;;;5014983;28;20073;-85
2022/11/05 04:48:37;;;;;;;4.97;1.50;;;8.10;99.90;;;;;;5033725;28;20127;-86
2022/11/05 04:51:04;;;;;;;7.55;1.05;;;8.10;99.90;;;;;;5036051;28;20050;-87
2022/11/05 04:53:32;;;;;;;4.80;0.98;;;8.10;99.90;;;;;;5015496;28;20042;-86
2022/11/05 04:56:18;;;;;;;7.25;1.20;;;8.20;99.90;;;;;;5017689;28;20049;-84
2022/11/05 04:58:46;;;;;;;6.25;1.10;;;8.20;99.90;;;;;;5031773;28;20103;-87
2022/11/05 05:01:20;;;;;;;6.00;1.25;;;8.20;99.90;;;;;;5032840;28;20061;-84
2022/11/05 05:03:47;;;;;;;6.10;1.50;;;8.30;99.90;;;;;;5013564;28;20052;-84
2022/11/05 05:06:14;;;;;;;4.72;1.10;;;8.30;99.90;;;;;;5032112;28;20049;-84
2022/11/05 05:08:40;;;;;;;5.07;1.13;;;8.30;99.90;;;;;;5019289;28;20132;-83
2022/11/05 05:11:09;;;;;;;7.07;1.42;;;8.30;99.90;;;;;;5034915;28;20096;-90
2022/11/05 05:13:35;;;;;;;5.35;2.33;;;8.30;99.90;;;;;;5017226;28;20053;-92
2022/11/05 05:16:06;;;;;;;6.53;1.40;;;8.40;99.90;;;;;;5033618;28;20058;-86
2022/11/05 05:18:32;;;;;;;6.32;1.40;;;8.40;99.90;;;;;;5032607;28;20053;-86
2022/11/05 05:23:45;;;;;;;5.50;1.52;;;8.40;99.90;;;;;;5031332;28;20061;-82
2022/11/05 05:26:11;;;;;;;6.15;1.15;;;8.30;99.90;;;;;;5012980;28;20060;-84
2022/11/05 05:28:37;;;;;;;5.38;1.20;;;8.30;99.90;;;;;;5030870;28;20042;-86
2022/11/05 05:31:04;;;;;;;6.38;1.17;;;8.30;99.90;;;;;;5035290;28;20057;-91
2022/11/05 05:33:29;;;;;;;4.35;1.30;;;8.30;99.90;;;;;;5037568;28;20387;-85
2022/11/05 05:36:00;;;;;;;6.82;1.20;;;8.20;99.90;;;;;;5032885;28;20065;-91
2022/11/05 05:38:28;;;;;;;5.57;1.33;;;8.20;99.90;;;;;;5003716;28;20054;-91
2022/11/05 05:40:59;;;;;;;4.95;1.42;;;8.20;99.90;;;;;;5016456;28;20053;-92
2022/11/05 05:43:34;;;;;;;6.88;1.55;;;8.20;99.90;;;;;;5031190;28;20050;-92
2022/11/05 05:46:04;;;;;;;6.45;1.40;;;8.10;99.90;;;;;;5014691;28;20156;-83
2022/11/05 05:48:30;;;;;;;6.82;1.60;;;8.10;99.90;;;;;;5035195;28;20042;-83
2022/11/05 05:51:05;;;;;;;6.90;1.58;;;8.00;99.90;;;;;;5022845;28;20057;-89
2022/11/05 05:53:32;;;;;;;4.82;1.60;;;7.90;99.90;;;;;;5013095;28;20446;-90
2022/11/05 05:55:58;;;;;;;13.02;2.22;;;7.90;99.90;;;;;;5033541;28;20054;-90
2022/11/05 05:58:26;;;;;;;5.18;1.80;;;7.90;99.90;;;;;;5033988;28;20497;-91
2022/11/05 06:00:52;;;;;;;6.45;2.20;;;7.80;99.90;;;;;;5015013;28;20057;-91
2022/11/05 06:03:18;;;;;;;6.55;1.75;;;7.80;99.90;;;;;;5033894;28;20041;-83
2022/11/05 06:05:44;;;;;;;6.03;2.08;;;7.70;99.90;;;;;;5023311;28;20452;-91
2022/11/05 06:08:10;;;;;;;7.97;2.20;;;7.70;99.90;;;;;;5019918;28;20490;-84
2022/11/05 06:10:36;;;;;;;6.38;1.98;;;7.70;99.90;;;;;;5036174;28;20057;-91
2022/11/05 06:13:02;;;;;;;7.30;1.92;;;7.60;99.90;;;;;;5017361;28;20046;-90
2022/11/05 06:15:28;;;;;;;10.20;2.42;;;7.60;99.90;;;;;;5000635;28;20088;-88
2022/11/05 06:17:54;;;;;;;9.68;2.05;;;7.60;99.90;;;;;;5034785;28;20077;-90
2022/11/05 06:20:21;;;;;;;11.88;2.50;;;7.60;99.90;;;;;;5016657;28;20467;-84
2022/11/05 06:22:54;;;;;;;7.13;2.08;;;7.60;99.90;;;;;;5038120;28;20131;-84
2022/11/05 06:25:21;;;;;;;10.30;2.50;;;7.60;99.90;;;;;;5040147;28;20128;-88
2022/11/05 06:27:46;;;;;;;8.50;2.70;;;7.60;99.90;;;;;;5034070;28;20049;-85
2022/11/05 06:30:13;;;;;;;10.65;2.88;;;7.60;99.90;;;;;;5033697;28;20517;-82
2022/11/05 06:32:38;;;;;;;10.75;2.72;;;7.60;99.90;;;;;;5036888;28;20042;-93
2022/11/05 06:35:04;;;;;;;7.53;2.45;;;7.60;99.90;;;;;;5034584;28;20065;-88
2022/11/05 06:37:32;;;;;;;5.47;2.50;;;7.60;99.90;;;;;;5018230;28;20143;-83
2022/11/05 06:39:59;;;;;;;7.70;2.38;;;7.60;99.90;;;;;;5041483;28;20068;-87
2022/11/05 06:42:25;;;;;;;5.65;2.47;;;7.60;99.90;;;;;;5042679;28;20045;-88
2022/11/05 06:44:59;;;;;;;9.77;2.50;;;7.60;99.90;;;;;;5040780;28;20037;-88
2022/11/05 06:47:35;;;;;;;6.15;2.25;;;7.60;99.90;;;;;;5034800;28;20085;-88
2022/11/05 06:50:08;;;;;;;5.90;2.47;;;7.50;99.90;;;;;;5027914;28;20100;-85
2022/11/05 06:52:34;;;;;;;6.32;2.08;;;7.50;99.90;;;;;;5045988;28;20165;-85
2022/11/05 06:55:09;;;;;;;6.55;2.55;;;7.60;99.90;;;;;;5028999;28;20064;-85
2022/11/05 06:57:37;;;;;;;11.02;2.42;;;7.60;99.90;;;;;;5049024;28;20049;-83
2022/11/05 07:00:07;;;;;;;9.00;2.17;;;7.60;99.90;;;;;;5011277;28;20115;-87
2022/11/05 07:02:35;;;;;;;7.75;2.03;;;7.70;99.90;;;;;;5044256;28;20049;-87
2022/11/05 07:05:02;;;;;;;9.18;2.20;;;7.70;99.90;;;;;;5030228;28;20061;-87
2022/11/05 07:07:33;;;;;;;5.00;2.10;;;7.70;99.90;;;;;;5029228;28;20131;-82
2022/11/05 07:10:13;;;;;;;7.90;2.83;;;7.80;99.90;;;;;;5027979;28;20109;-84
2022/11/05 07:13:21;;;;;;;8.48;2.28;;;7.80;99.90;;;;;;5035184;28;20061;-83
2022/11/05 07:15:48;;;;;;;6.10;2.20;;;7.80;99.90;;;;;;5010219;28;20053;-86
2022/11/05 07:18:15;;;;;;;5.43;1.85;;;7.80;99.90;;;;;;5023567;28;20489;-91
2022/11/05 07:20:41;;;;;;;5.57;2.10;;;7.90;99.90;;;;;;5037291;28;20055;-88
2022/11/05 07:23:10;;;;;;;5.88;1.98;;;8.00;99.90;;;;;;5036916;28;20045;-85
2022/11/05 07:25:40;;;;;;;9.20;2.30;;;8.00;99.90;;;;;;5006720;28;20109;-83
2022/11/05 07:28:07;;;;;;;9.48;3.10;;;8.10;99.90;;;;;;5044975;28;20073;-85
2022/11/05 07:30:37;;;;;;;4.32;2.38;;;8.10;99.90;;;;;;5043928;28;20058;-86
2022/11/05 07:33:04;;;;;;;6.72;2.70;;;8.20;99.90;;;;;;5029757;28;20136;-84
2022/11/05 07:35:46;;;;;;;6.15;2.83;;;8.30;99.90;;;;;;5047646;28;20053;-88
2022/11/05 07:38:21;;;;;;;6.40;2.30;;;8.40;99.90;;;;;;5045642;28;20045;-84
2022/11/05 07:40:47;;;;;;;6.45;2.67;;;8.50;99.90;;;;;;5018866;28;20528;-84
2022/11/05 07:43:13;;;;;;;6.88;2.70;;;8.60;99.90;;;;;;5039207;28;20154;-90
2022/11/05 07:45:39;;;;;;;9.35;2.63;;;8.60;99.90;;;;;;5015390;28;20060;-86
2022/11/05 07:48:05;;;;;;;7.78;2.60;;;8.70;99.90;;;;;;5015156;28;20041;-90
2022/11/05 07:50:35;;;;;;;7.53;3.38;;;8.70;99.90;;;;;;5017934;28;20088;-89
2022/11/05 07:53:04;;;;;;;4.63;2.78;;;8.70;99.90;;;;;;5033276;28;20096;-91
2022/11/05 07:55:30;;;;;;;6.75;2.60;;;8.60;99.90;;;;;;5033116;28;20052;-89
2022/11/05 07:57:56;;;;;;;8.73;3.55;;;8.60;99.90;;;;;;5032881;28;20045;-90
2022/11/05 08:00:26;;;;;;;7.03;2.60;;;8.60;99.90;;;;;;5019543;28;20468;-92
2022/11/05 08:03:03;;;;;;;5.95;2.78;;;8.50;99.90;;;;;;5022896;28;20049;-85
2022/11/05 08:05:30;;;;;;;8.43;2.90;;;8.50;99.90;;;;;;5014669;28;20072;-93
2022/11/05 08:07:56;;;;;;;7.38;3.25;;;8.50;99.90;;;;;;5035122;28;20053;-86
2022/11/05 08:10:23;;;;;;;5.68;2.65;;;8.40;99.90;;;;;;5000818;28;20770;-92
2022/11/05 08:12:52;;;;;;;6.63;2.45;;;8.40;99.90;;;;;;4999511;28;20050;-84
2022/11/05 08:15:18;;;;;;;6.05;2.67;;;8.40;99.90;;;;;;4999581;28;20049;-86
2022/11/05 08:17:45;;;;;;;7.13;2.33;;;8.40;99.90;;;;;;5019789;28;20105;-92
2022/11/05 08:20:12;;;;;;;7.75;2.45;;;8.40;99.90;;;;;;5033119;28;20100;-85
2022/11/05 08:22:47;;;;;;;5.90;2.50;;;8.40;99.90;;;;;;5018297;28;20041;-86
2022/11/05 08:25:13;;;;;;;5.82;2.90;;;8.40;99.90;;;;;;5019705;28;20060;-84
2022/11/05 08:27:39;;;;;;;8.73;2.90;;;8.50;99.90;;;;;;5033668;28;20462;-88
2022/11/05 08:30:07;;;;;;;5.57;2.60;;;8.60;99.90;;;;;;5032088;28;20512;-87
2022/11/05 08:32:33;;;;;;;8.68;2.30;;;8.70;99.90;;;;;;5015840;28;20163;-88
2022/11/05 08:34:59;;;;;;;6.63;2.72;;;8.80;99.90;;;;;;5032106;28;20045;-86
2022/11/05 08:37:25;;;;;;;9.05;2.60;;;8.80;99.90;;;;;;5035426;28;20055;-84
2022/11/05 08:39:51;;;;;;;7.57;2.20;;;8.80;99.90;;;;;;5016274;28;20046;-88
2022/11/05 08:42:17;;;;;;;10.65;2.42;;;8.90;99.90;;;;;;5032406;28;20565;-88
2022/11/05 08:44:43;;;;;;;8.05;2.40;;;8.90;99.90;;;;;;5036873;28;20057;-85
2022/11/05 08:47:12;;;;;;;5.22;2.05;;;9.00;99.90;;;;;;5033931;28;20057;-89
2022/11/05 08:49:38;;;;;;;7.63;2.28;;;9.10;99.90;;;;;;5033159;28;20481;-85
2022/11/05 08:52:04;;;;;;;8.02;2.47;;;9.30;99.90;;;;;;5036368;28;20144;-82
2022/11/05 08:54:30;;;;;;;7.35;2.65;;;9.30;99.90;;;;;;5037846;28;20052;-83
2022/11/05 08:56:56;;;;;;;6.20;2.15;;;9.40;99.90;;;;;;5015346;28;20049;-85
2022/11/05 08:59:22;;;;;;;5.22;2.10;;;9.40;99.90;;;;;;4997923;28;20528;-89
2022/11/05 09:01:49;;;;;;;7.50;2.20;;;9.50;99.90;;;;;;5017400;28;20060;-83
2022/11/05 09:04:15;;;;;;;5.72;2.40;;;9.50;99.90;;;;;;5022308;28;20069;-83
2022/11/05 09:06:41;;;;;;;8.75;2.65;;;9.50;99.90;;;;;;5037021;28;20045;-89
2022/11/05 09:09:06;;;;;;;6.32;2.58;;;9.60;99.90;;;;;;5004869;28;20467;-83
2022/11/05 09:11:33;;;;;;;8.35;2.97;;;9.60;99.90;;;;;;5029120;28;20050;-87
2022/11/05 09:13:58;;;;;;;4.97;2.00;;;9.70;99.90;;;;;;5020804;28;20053;-82
2022/11/05 09:16:25;;;;;;;5.80;3.17;;;9.70;99.90;;;;;;5021588;28;20110;-86
2022/11/05 09:18:51;;;;;;;8.07;2.90;;;9.80;99.90;;;;;;5043720;28;20045;-86
2022/11/05 09:21:18;;;;;;;8.38;2.13;;;9.80;99.90;;;;;;5042490;28;20076;-88
2022/11/05 09:23:45;;;;;;;6.25;2.38;;;10.00;99.90;;;;;;5040215;28;20441;-82
2022/11/05 09:26:12;;;;;;;7.10;2.50;;;10.20;99.90;;;;;;5022993;28;20084;-83
2022/11/05 09:28:39;;;;;;;6.45;2.60;;;10.40;99.90;;;;;;5039347;28;20481;-84
2022/11/05 09:31:07;;;;;;;6.75;2.95;;;10.50;99.90;;;;;;5020406;28;20056;-84
2022/11/05 09:33:34;;;;;;;6.45;2.10;;;10.60;99.90;;;;;;5031441;28;20132;-87
2022/11/05 09:36:00;;;;;;;6.25;3.10;;;10.70;99.90;;;;;;5031833;28;20065;-86
2022/11/05 09:38:27;;;;;;;7.45;2.00;;;10.80;99.90;;;;;;5016528;28;20053;-87
2022/11/05 09:41:02;;;;;;;6.95;2.08;;;11.00;99.90;;;;;;5034948;28;20122;-84
2022/11/05 09:43:39;;;;;;;;;;;11.00;99.90;;;;;;5017725;28;20049;-86
2022/11/05 09:46:18;;;;;;;5.40;1.45;;;11.10;99.90;;;;;;5034907;28;19929;-87
2022/11/05 09:48:48;;;;;;;5.25;1.70;;;11.10;99.90;;;;;;5035014;28;20042;-87
2022/11/05 09:51:15;;;;;;;5.78;1.50;;;11.10;99.90;;;;;;5036608;28;20421;-83
2022/11/05 09:53:44;;;;;;;5.63;1.50;;;11.10;99.90;;;;;;5038734;28;20054;-87
2022/11/05 09:56:33;;;;;;;5.88;1.52;;;11.10;99.90;;;;;;5021261;28;20153;-85
2022/11/05 09:59:05;;;;;;;8.48;1.60;;;11.10;99.90;;;;;;5039192;28;20053;-84
2022/11/05 10:01:35;;;;;;;9.35;1.73;;;11.10;99.90;;;;;;5037436;28;20084;-82
2022/11/05 10:04:23;;;;;;;8.43;1.70;;;11.10;99.90;;;;;;5036646;28;20123;-82
2022/11/05 10:06:57;;;;;;;5.28;1.40;;;11.20;99.90;;;;;;5018391;28;20111;-88
2022/11/05 10:09:35;;;;;;;4.63;1.52;;;11.20;99.90;;;;;;5038466;28;20064;-84
2022/11/05 10:12:42;;;;;;;7.68;2.00;;;11.30;99.90;;;;;;5041418;28;20520;-83
2022/11/05 10:15:16;;;;;;;3.80;1.20;;;11.30;99.90;;;;;;5042857;28;20083;-87
2022/11/05 10:17:48;;;;;;;4.93;1.20;;;11.40;99.90;;;;;;5033091;28;20065;-88
2022/11/05 10:20:33;;;;;;;6.60;1.25;;;11.50;99.90;;;;;;5033372;28;20069;-88
2022/11/05 10:23:15;;;;;;;3.35;1.00;;;11.60;99.90;;;;;;5050321;28;20056;-83
2022/11/05 10:25:47;;;;;;;5.57;1.10;;;12.00;99.90;;;;;;5021551;28;20057;-89
2022/11/05 10:28:20;;;;;;;6.82;1.50;;;12.40;99.90;;;;;;5037267;28;20066;-85
2022/11/05 10:30:49;;;;;;;5.95;1.40;;;12.70;99.90;;;;;;5018658;28;20406;-84
2022/11/05 10:33:26;;;;;;;8.88;1.95;;;12.80;99.90;;;;;;5019546;28;20088;-87
2022/11/05 10:35:58;;;;;;;8.25;1.60;;;12.90;99.90;;;;;;5037880;28;20057;-83
2022/11/05 10:38:24;;;;;;;6.13;2.33;;;13.20;99.90;;;;;;5002230;28;20140;-87
2022/11/05 10:41:13;;;;;;;5.95;1.95;;;13.30;99.90;;;;;;5017670;28;20049;-84
2022/11/05 10:43:49;;;;;;;10.27;1.95;;;13.50;99.90;;;;;;5037571;28;20045;-83
2022/11/05 10:46:31;;;;;;;5.30;1.80;;;13.70;99.90;;;;;;5021804;28;20128;-84
2022/11/05 10:49:25;;;;;;;7.28;2.33;;;13.80;99.90;;;;;;5036894;28;20048;-85
2022/11/05 10:51:57;;;;;;;7.80;2.22;;;13.90;99.90;;;;;;5033247;28;20045;-90
2022/11/05 10:54:32;;;;;;;10.55;3.10;;;13.90;99.90;;;;;;5016886;28;20062;-80
2022/11/05 10:56:58;;;;;;;;;;;13.90;99.90;;;;;;5002769;28;20784;-86
2022/11/05 10:59:29;;;;;;;8.52;2.20;;;13.90;99.90;;;;;;5018252;28;20469;-86
2022/11/05 11:02:13;;;;;;;7.63;2.25;;;14.10;99.90;;;;;;5016232;28;20084;-88
2022/11/05 11:04:39;;;;;;;7.27;2.07;;;14.40;99.90;;;;;;5039582;28;20085;-85
2022/11/05 11:07:20;;;;;;;7.97;1.95;;;14.50;99.90;;;;;;5020209;28;20053;-82
2022/11/05 11:09:48;;;;;;;5.00;1.67;;;14.80;99.90;;;;;;5020672;28;20468;-82
2022/11/05 11:12:21;;;;;;;5.50;1.83;;;14.80;99.90;;;;;;5038707;28;20059;-87
2022/11/05 11:15:13;;;;;;;9.00;2.22;;;14.90;99.90;;;;;;5016802;28;20049;-90
2022/11/05 11:17:39;;;;;;;5.50;1.58;;;15.40;99.90;;;;;;5015624;28;20505;-86
2022/11/05 11:20:26;;;;;;;9.23;1.52;;;16.10;99.90;;;;;;5034051;28;20060;-90
2022/11/05 11:23:11;;;;;;;11.02;2.13;;;16.90;99.90;;;;;;5033590;28;20054;-88
2022/11/05 11:25:48;;;;;;;10.90;1.80;;;17.50;99.90;;;;;;5016672;28;20069;-83
2022/11/05 11:28:23;;;;;;;6.05;2.10;;;18.20;99.90;;;;;;5015565;28;20052;-86
2022/11/05 11:30:54;;;;;;;10.38;2.22;;;19.20;99.90;;;;;;5032551;28;20046;-85
2022/11/05 11:33:26;;;;;;;7.90;1.55;;;19.20;99.90;;;;;;5032895;28;20402;-88
2022/11/05 11:35:52;;;;;;;8.45;1.67;;;19.80;99.60;;;;;;5034787;28;20060;-87
2022/11/05 11:38:18;;;;;;;7.95;1.58;;;19.00;99.00;;;;;;5033320;28;20401;-85
2022/11/05 11:40:44;;;;;;;6.80;1.95;;;18.00;99.50;;;;;;5033568;28;20133;-88
2022/11/05 11:43:33;;;;;;;10.00;1.70;;;16.90;99.90;;;;;;5033379;28;20060;-87
2022/11/05 11:46:00;;;;;;;6.68;1.63;;;16.10;99.90;;;;;;4998489;28;20049;-82
2022/11/05 11:48:30;;;;;;;9.52;1.77;;;15.60;99.90;;;;;;5016525;28;20057;-83
2022/11/05 11:50:58;;;;;;;7.43;2.05;;;15.20;99.90;;;;;;5001184;28;20109;-85
2022/11/05 11:53:34;;;;;;;7.90;1.80;;;15.00;99.90;;;;;;5001408;28;20064;-83
2022/11/05 11:56:15;;;;;;;6.30;1.83;;;15.00;99.90;;;;;;5032532;28;20060;-89
2022/11/05 11:58:46;;;;;;;9.73;1.80;;;14.90;99.90;;;;;;5014537;28;20556;-83
2022/11/05 12:01:46;;;;;;;8.55;1.83;;;15.00;99.90;;;;;;5032163;28;20501;-82
2022/11/05 12:04:23;;;;;;;8.95;2.22;;;15.20;99.90;;;;;;5032229;28;20107;-83
2022/11/05 12:07:01;;;;;;;5.03;1.33;;;15.10;99.90;;;;;;5032216;28;20048;-82
2022/11/05 12:10:06;;;;;;;6.53;1.70;;;14.80;99.90;;;;;;5015001;28;20598;-85
2022/11/05 12:13:05;;;;;;;8.32;1.60;;;14.40;99.90;;;;;;4986220;28;20057;-89
2022/11/05 12:15:31;;;;;;;6.70;2.10;;;14.00;99.90;;;;;;5037577;28;20049;-87
2022/11/05 12:18:12;;;;;;;9.15;2.42;;;13.60;99.90;;;;;;5018594;28;20061;-82
2022/11/05 12:20:56;;;;;;;5.78;1.70;;;13.40;99.90;;;;;;5031584;28;20515;-89
2022/11/05 12:23:41;;;;;;;5.15;1.17;;;13.30;99.90;;;;;;5032791;28;20116;-89
2022/11/05 12:26:36;;;;;;;6.65;1.40;;;13.10;99.90;;;;;;5036613;28;20053;-89
2022/11/05 12:29:31;;;;;;;7.05;1.70;;;12.80;99.90;;;;;;5015079;28;20058;-82
2022/11/05 12:31:57;;;;;;;4.13;1.40;;;12.70;99.90;;;;;;5033494;28;20060;-84
2022/11/05 12:34:48;;;;;;;7.25;1.40;;;12.50;99.90;;;;;;5035280;28;20054;-82
2022/11/05 12:37:20;;;;;;;7.82;1.38;;;12.50;99.90;;;;;;5021720;28;20053;-86
2022/11/05 12:40:05;;;;;;;5.07;1.25;;;12.40;99.90;;;;;;5037575;28;20077;-89
2022/11/05 12:43:10;;;;;;;6.13;1.20;;;12.40;99.90;;;;;;5018865;28;20077;-86
2022/11/05 12:45:55;;;;;;;3.65;1.00;;;12.30;99.90;;;;;;5037609;28;20049;-85
2022/11/05 12:48:30;;;;;;;3.65;1.02;;;12.30;99.90;;;;;;5026909;28;20053;-89
2022/11/05 12:51:34;;;;;;;4.50;0.80;;;12.20;99.90;;;;;;5021890;28;20423;-85
2022/11/05 12:54:30;;;;;;;2.00;0.60;;;12.20;99.90;;;;;;5030596;28;20524;-81
2022/11/05 12:57:02;;;;;;;2.83;1.00;;;12.10;99.90;;;;;;5031715;28;20045;-82
2022/11/05 12:59:58;;;;;;;4.78;0.70;;;12.10;99.90;;;;;;5013178;28;20080;-85
2022/11/05 13:03:07;;;;;;;4.63;0.73;;;12.00;99.90;;;;;;4979534;28;20049;-82
2022/11/05 13:05:44;;;;;;;6.55;0.90;;;12.00;99.90;;;;;;5018025;28;20140;-85
2022/11/05 13:08:24;;;;;;;3.88;0.98;;;12.00;99.90;;;;;;5013310;28;20055;-85
2022/11/05 13:10:56;;;;;;;3.88;0.93;;;11.90;99.90;;;;;;5030964;28;20085;-89
2022/11/05 13:13:27;;;;;;;3.88;0.90;;;11.90;99.90;;;;;;5031431;28;20045;-85
2022/11/05 13:16:18;;;;;;;5.65;0.98;;;11.80;99.90;;;;;;5033336;28;20061;-85
2022/11/05 13:18:59;;;;;;;8.27;1.40;;;11.80;99.90;;;;;;5030676;28;20045;-88
2022/11/05 13:21:28;;;;;;;3.05;0.90;;;11.70;99.90;;;;;;5035883;28;20053;-82
2022/11/05 13:24:25;;;;;;;8.40;1.08;;;11.70;99.90;;;;;;5030598;28;20501;-88
2022/11/05 13:27:25;;;;;;;4.35;0.98;;;11.70;99.90;;;;;;4996649;28;20046;-82
2022/11/05 13:30:01;;;;;;;7.07;2.00;;;11.70;99.90;;;;;;4965815;28;20053;-89
2022/11/05 13:32:31;;;;;;;8.93;2.10;;;11.70;99.90;;;;;;5013959;28;20089;-87
2022/11/05 13:35:04;;;;;;;5.53;1.70;;;11.70;99.90;;;;;;5031339;28;20118;-90
2022/11/05 13:41:00;;;;;;;9.85;2.10;;;11.70;99.90;;;;;;4952728;28;20109;-82
2022/11/05 13:43:41;;;;;;;;;;;11.70;99.90;;;;;;5026439;28;20085;-86
2022/11/05 13:46:13;;;;;;;6.55;1.63;;;11.70;99.90;;;;;;5031181;28;19979;-83
2022/11/05 13:48:57;;;;;;;5.97;1.73;;;11.70;99.90;;;;;;5031461;28;20041;-89
2022/11/05 13:51:51;;;;;;;7.40;2.07;;;11.70;99.90;;;;;;5030838;28;20049;-83
2022/11/05 13:54:38;;;;;;;7.38;1.58;;;11.60;99.90;;;;;;5013870;28;20058;-85
2022/11/05 13:57:28;;;;;;;6.35;1.60;;;11.60;99.90;;;;;;5013048;28;20053;-84
2022/11/05 14:00:12;;;;;;;6.93;2.22;;;11.60;99.90;;;;;;5031619;28;20038;-85
2022/11/05 14:03:04;;;;;;;8.93;2.13;;;11.60;99.90;;;;;;5031394;28;20041;-87
2022/11/05 14:05:34;;;;;;;7.55;1.77;;;11.60;99.90;;;;;;5020164;28;20105;-92
2022/11/05 14:08:09;;;;;;;10.00;2.72;;;11.50;99.90;;;;;;5036069;28;20092;-90
2022/11/05 14:10:44;;;;;;;9.07;2.10;;;11.60;99.90;;;;;;5017170;28;20048;-85
2022/11/05 14:13:35;;;;;;;10.10;2.67;;;11.50;99.90;;;;;;5013709;28;20132;-86